sensor_id;sensor_type;location;lat;lon;timestamp;P1;durP1;ratioP1;P2;durP2;ratioP2
31073;SDS011;17730;53.552;9.940;2022-10-31T00:00:49;47.05;;;21.85;;
31073;SDS011;17730;53.552;9.940;2022-10-31T00:03:15;40.58;;;23.33;;
31073;SDS011;17730;53.552;9.940;2022-10-31T00:05:48;39.53;;;22.48;;
31073;SDS011;17730;53.552;9.940;2022-10-31T00:08:14;40.08;;;21.67;;
31073;SDS011;17730;53.552;9.940;2022-10-31T00:10:41;45.28;;;22.27;;
31073;SDS011;17730;53.552;9.940;2022-10-31T00:13:08;44.65;;;23.67;;
31073;SDS011;17730;53.552;9.940;2022-10-31T00:15:34;45.00;;;23.38;;
31073;SDS011;17730;53.552;9.940;2022-10-31T00:18:02;41.45;;;22.65;;
31073;SDS011;17730;53.552;9.940;2022-10-31T00:20:29;47.13;;;23.17;;
31073;SDS011;17730;53.552;9.940;2022-10-31T00:22:59;52.05;;;23.75;;
31073;SDS011;17730;53.552;9.940;2022-10-31T00:25:25;52.50;;;25.27;;
31073;SDS011;17730;53.552;9.940;2022-10-31T00:27:52;55.58;;;23.20;;
31073;SDS011;17730;53.552;9.940;2022-10-31T00:30:17;49.20;;;23.63;;
31073;SDS011;17730;53.552;9.940;2022-10-31T00:32:43;47.15;;;23.23;;
31073;SDS011;17730;53.552;9.940;2022-10-31T00:35:09;43.17;;;25.15;;
31073;SDS011;17730;53.552;9.940;2022-10-31T00:37:34;50.63;;;23.08;;
31073;SDS011;17730;53.552;9.940;2022-10-31T00:40:00;53.95;;;23.90;;
31073;SDS011;17730;53.552;9.940;2022-10-31T00:42:26;52.33;;;24.33;;
31073;SDS011;17730;53.552;9.940;2022-10-31T00:44:51;44.95;;;23.60;;
31073;SDS011;17730;53.552;9.940;2022-10-31T00:47:17;52.72;;;23.67;;
31073;SDS011;17730;53.552;9.940;2022-10-31T00:49:42;43.03;;;24.50;;
31073;SDS011;17730;53.552;9.940;2022-10-31T00:52:08;47.72;;;23.48;;
31073;SDS011;17730;53.552;9.940;2022-10-31T00:54:34;48.78;;;24.88;;
31073;SDS011;17730;53.552;9.940;2022-10-31T00:57:00;53.58;;;25.83;;
31073;SDS011;17730;53.552;9.940;2022-10-31T00:59:25;55.20;;;26.30;;
31073;SDS011;17730;53.552;9.940;2022-10-31T01:01:51;51.78;;;25.52;;
31073;SDS011;17730;53.552;9.940;2022-10-31T01:04:16;45.08;;;26.02;;
31073;SDS011;17730;53.552;9.940;2022-10-31T01:06:42;53.17;;;26.70;;
31073;SDS011;17730;53.552;9.940;2022-10-31T01:09:08;49.30;;;27.17;;
31073;SDS011;17730;53.552;9.940;2022-10-31T01:11:33;60.88;;;25.70;;
31073;SDS011;17730;53.552;9.940;2022-10-31T01:13:59;56.70;;;27.55;;
31073;SDS011;17730;53.552;9.940;2022-10-31T01:16:26;53.85;;;28.00;;
31073;SDS011;17730;53.552;9.940;2022-10-31T01:18:52;58.42;;;28.13;;
31073;SDS011;17730;53.552;9.940;2022-10-31T01:21:22;63.67;;;29.15;;
31073;SDS011;17730;53.552;9.940;2022-10-31T01:23:50;60.25;;;27.42;;
31073;SDS011;17730;53.552;9.940;2022-10-31T01:26:18;51.05;;;28.42;;
31073;SDS011;17730;53.552;9.940;2022-10-31T01:28:49;58.00;;;29.67;;
31073;SDS011;17730;53.552;9.940;2022-10-31T01:31:21;66.18;;;29.95;;
31073;SDS011;17730;53.552;9.940;2022-10-31T01:33:48;57.38;;;28.67;;
31073;SDS011;17730;53.552;9.940;2022-10-31T01:36:18;56.97;;;28.73;;
31073;SDS011;17730;53.552;9.940;2022-10-31T01:38:44;55.75;;;29.50;;
31073;SDS011;17730;53.552;9.940;2022-10-31T01:41:11;59.83;;;30.92;;
31073;SDS011;17730;53.552;9.940;2022-10-31T01:43:43;64.38;;;31.27;;
31073;SDS011;17730;53.552;9.940;2022-10-31T01:46:30;58.80;;;30.00;;
31073;SDS011;17730;53.552;9.940;2022-10-31T01:49:05;55.50;;;31.33;;
31073;SDS011;17730;53.552;9.940;2022-10-31T01:51:38;64.40;;;30.60;;
31073;SDS011;17730;53.552;9.940;2022-10-31T01:54:11;56.40;;;31.10;;
31073;SDS011;17730;53.552;9.940;2022-10-31T01:56:40;61.15;;;31.65;;
31073;SDS011;17730;53.552;9.940;2022-10-31T01:59:11;55.75;;;31.27;;
31073;SDS011;17730;53.552;9.940;2022-10-31T02:01:40;60.03;;;32.38;;
31073;SDS011;17730;53.552;9.940;2022-10-31T02:04:06;75.53;;;34.08;;
31073;SDS011;17730;53.552;9.940;2022-10-31T02:06:35;85.63;;;41.17;;
31073;SDS011;17730;53.552;9.940;2022-10-31T02:09:02;65.95;;;35.25;;
31073;SDS011;17730;53.552;9.940;2022-10-31T02:11:29;68.90;;;33.20;;
31073;SDS011;17730;53.552;9.940;2022-10-31T02:13:58;62.63;;;33.45;;
31073;SDS011;17730;53.552;9.940;2022-10-31T02:16:26;70.05;;;33.78;;
31073;SDS011;17730;53.552;9.940;2022-10-31T02:18:51;65.60;;;36.10;;
31073;SDS011;17730;53.552;9.940;2022-10-31T02:37:38;81.97;;;37.38;;
31073;SDS011;17730;53.552;9.940;2022-10-31T02:42:56;82.65;;;38.85;;
31073;SDS011;17730;53.552;9.940;2022-10-31T02:45:45;80.47;;;37.25;;
31073;SDS011;17730;53.552;9.940;2022-10-31T02:48:18;83.43;;;40.65;;
31073;SDS011;17730;53.552;9.940;2022-10-31T02:50:50;86.15;;;41.53;;
31073;SDS011;17730;53.552;9.940;2022-10-31T02:53:20;85.15;;;39.50;;
31073;SDS011;17730;53.552;9.940;2022-10-31T02:56:04;82.55;;;40.58;;
31073;SDS011;17730;53.552;9.940;2022-10-31T02:58:33;79.68;;;38.60;;
31073;SDS011;17730;53.552;9.940;2022-10-31T03:06:35;98.00;;;43.28;;
31073;SDS011;17730;53.552;9.940;2022-10-31T03:09:41;80.38;;;40.33;;
31073;SDS011;17730;53.552;9.940;2022-10-31T03:12:38;86.85;;;41.35;;
31073;SDS011;17730;53.552;9.940;2022-10-31T03:15:33;95.32;;;42.35;;
31073;SDS011;17730;53.552;9.940;2022-10-31T03:20:52;95.15;;;41.47;;
31073;SDS011;17730;53.552;9.940;2022-10-31T03:23:23;87.40;;;42.10;;
31073;SDS011;17730;53.552;9.940;2022-10-31T03:25:50;97.32;;;42.47;;
31073;SDS011;17730;53.552;9.940;2022-10-31T03:28:20;93.72;;;45.35;;
31073;SDS011;17730;53.552;9.940;2022-10-31T03:31:04;86.30;;;45.55;;
31073;SDS011;17730;53.552;9.940;2022-10-31T03:33:32;95.45;;;45.83;;
31073;SDS011;17730;53.552;9.940;2022-10-31T03:36:02;102.47;;;45.45;;
31073;SDS011;17730;53.552;9.940;2022-10-31T03:38:31;102.65;;;46.85;;
31073;SDS011;17730;53.552;9.940;2022-10-31T03:40:59;104.20;;;45.72;;
31073;SDS011;17730;53.552;9.940;2022-10-31T03:43:30;94.13;;;47.05;;
31073;SDS011;17730;53.552;9.940;2022-10-31T03:46:00;99.22;;;47.35;;
31073;SDS011;17730;53.552;9.940;2022-10-31T03:48:26;105.82;;;47.85;;
31073;SDS011;17730;53.552;9.940;2022-10-31T03:51:01;101.70;;;47.65;;
31073;SDS011;17730;53.552;9.940;2022-10-31T03:53:41;117.28;;;48.92;;
31073;SDS011;17730;53.552;9.940;2022-10-31T03:59:20;118.65;;;49.63;;
31073;SDS011;17730;53.552;9.940;2022-10-31T04:02:10;107.78;;;48.38;;
31073;SDS011;17730;53.552;9.940;2022-10-31T04:04:40;119.20;;;49.50;;
31073;SDS011;17730;53.552;9.940;2022-10-31T04:07:07;116.25;;;48.80;;
31073;SDS011;17730;53.552;9.940;2022-10-31T04:09:35;109.90;;;49.28;;
31073;SDS011;17730;53.552;9.940;2022-10-31T04:12:03;108.45;;;49.22;;
31073;SDS011;17730;53.552;9.940;2022-10-31T04:14:34;112.80;;;49.15;;
31073;SDS011;17730;53.552;9.940;2022-10-31T04:17:03;112.80;;;48.33;;
31073;SDS011;17730;53.552;9.940;2022-10-31T04:19:33;112.65;;;48.10;;
31073;SDS011;17730;53.552;9.940;2022-10-31T04:21:59;110.60;;;48.08;;
31073;SDS011;17730;53.552;9.940;2022-10-31T04:24:25;116.70;;;49.80;;
31073;SDS011;17730;53.552;9.940;2022-10-31T04:26:50;110.72;;;48.20;;
31073;SDS011;17730;53.552;9.940;2022-10-31T04:29:16;109.82;;;47.13;;
31073;SDS011;17730;53.552;9.940;2022-10-31T04:31:42;112.40;;;48.42;;
31073;SDS011;17730;53.552;9.940;2022-10-31T04:34:08;121.22;;;51.97;;
31073;SDS011;17730;53.552;9.940;2022-10-31T04:36:33;122.93;;;49.53;;
31073;SDS011;17730;53.552;9.940;2022-10-31T04:38:59;121.57;;;50.60;;
31073;SDS011;17730;53.552;9.940;2022-10-31T04:41:25;125.88;;;52.83;;
31073;SDS011;17730;53.552;9.940;2022-10-31T04:43:50;126.22;;;54.08;;
31073;SDS011;17730;53.552;9.940;2022-10-31T04:46:16;139.82;;;54.15;;
31073;SDS011;17730;53.552;9.940;2022-10-31T04:48:41;133.02;;;54.63;;
31073;SDS011;17730;53.552;9.940;2022-10-31T04:51:07;152.75;;;54.72;;
31073;SDS011;17730;53.552;9.940;2022-10-31T04:53:33;141.20;;;56.00;;
31073;SDS011;17730;53.552;9.940;2022-10-31T04:55:58;136.73;;;56.00;;
31073;SDS011;17730;53.552;9.940;2022-10-31T04:58:25;142.60;;;56.80;;
31073;SDS011;17730;53.552;9.940;2022-10-31T05:00:52;136.55;;;56.53;;
31073;SDS011;17730;53.552;9.940;2022-10-31T05:03:18;133.68;;;55.70;;
31073;SDS011;17730;53.552;9.940;2022-10-31T05:05:44;141.60;;;57.17;;
31073;SDS011;17730;53.552;9.940;2022-10-31T05:08:09;146.23;;;57.28;;
31073;SDS011;17730;53.552;9.940;2022-10-31T05:10:35;141.98;;;58.67;;
31073;SDS011;17730;53.552;9.940;2022-10-31T05:13:01;143.48;;;56.78;;
31073;SDS011;17730;53.552;9.940;2022-10-31T05:15:28;151.60;;;56.75;;
31073;SDS011;17730;53.552;9.940;2022-10-31T05:17:54;148.32;;;56.53;;
31073;SDS011;17730;53.552;9.940;2022-10-31T05:20:22;131.10;;;58.67;;
31073;SDS011;17730;53.552;9.940;2022-10-31T05:22:52;138.57;;;57.40;;
31073;SDS011;17730;53.552;9.940;2022-10-31T05:25:19;136.50;;;55.13;;
31073;SDS011;17730;53.552;9.940;2022-10-31T05:27:47;133.77;;;56.50;;
31073;SDS011;17730;53.552;9.940;2022-10-31T05:30:14;136.13;;;54.17;;
31073;SDS011;17730;53.552;9.940;2022-10-31T05:32:46;134.27;;;55.97;;
31073;SDS011;17730;53.552;9.940;2022-10-31T05:35:14;152.75;;;57.15;;
31073;SDS011;17730;53.552;9.940;2022-10-31T05:37:41;146.73;;;58.05;;
31073;SDS011;17730;53.552;9.940;2022-10-31T05:40:07;149.02;;;52.67;;
31073;SDS011;17730;53.552;9.940;2022-10-31T05:42:34;172.50;;;52.63;;
31073;SDS011;17730;53.552;9.940;2022-10-31T05:45:00;140.70;;;53.67;;
31073;SDS011;17730;53.552;9.940;2022-10-31T05:47:26;153.23;;;52.67;;
31073;SDS011;17730;53.552;9.940;2022-10-31T05:49:52;161.23;;;51.13;;
31073;SDS011;17730;53.552;9.940;2022-10-31T05:52:18;153.38;;;52.05;;
31073;SDS011;17730;53.552;9.940;2022-10-31T05:54:43;174.40;;;52.33;;
31073;SDS011;17730;53.552;9.940;2022-10-31T05:57:09;231.20;;;51.33;;
31073;SDS011;17730;53.552;9.940;2022-10-31T05:59:35;204.38;;;51.72;;
31073;SDS011;17730;53.552;9.940;2022-10-31T06:02:01;193.10;;;51.40;;
31073;SDS011;17730;53.552;9.940;2022-10-31T06:04:26;146.30;;;49.28;;
31073;SDS011;17730;53.552;9.940;2022-10-31T06:06:52;177.70;;;50.00;;
31073;SDS011;17730;53.552;9.940;2022-10-31T06:09:17;206.77;;;49.83;;
31073;SDS011;17730;53.552;9.940;2022-10-31T06:11:43;207.13;;;49.42;;
31073;SDS011;17730;53.552;9.940;2022-10-31T06:14:08;192.40;;;49.80;;
31073;SDS011;17730;53.552;9.940;2022-10-31T06:16:34;137.27;;;49.17;;
31073;SDS011;17730;53.552;9.940;2022-10-31T06:19:00;134.52;;;47.97;;
31073;SDS011;17730;53.552;9.940;2022-10-31T06:21:26;143.68;;;44.13;;
31073;SDS011;17730;53.552;9.940;2022-10-31T06:23:51;171.00;;;45.88;;
31073;SDS011;17730;53.552;9.940;2022-10-31T06:26:17;160.23;;;43.88;;
31073;SDS011;17730;53.552;9.940;2022-10-31T06:28:42;197.13;;;44.20;;
31073;SDS011;17730;53.552;9.940;2022-10-31T06:31:08;176.27;;;44.72;;
31073;SDS011;17730;53.552;9.940;2022-10-31T06:33:33;158.98;;;43.90;;
31073;SDS011;17730;53.552;9.940;2022-10-31T06:35:59;194.02;;;43.35;;
31073;SDS011;17730;53.552;9.940;2022-10-31T06:38:25;180.15;;;43.08;;
31073;SDS011;17730;53.552;9.940;2022-10-31T06:40:53;179.38;;;43.22;;
31073;SDS011;17730;53.552;9.940;2022-10-31T06:43:19;252.15;;;43.30;;
31073;SDS011;17730;53.552;9.940;2022-10-31T06:45:46;264.10;;;44.05;;
31073;SDS011;17730;53.552;9.940;2022-10-31T06:48:12;206.38;;;44.63;;
31073;SDS011;17730;53.552;9.940;2022-10-31T06:50:38;235.77;;;44.42;;
31073;SDS011;17730;53.552;9.940;2022-10-31T06:53:03;156.02;;;43.88;;
31073;SDS011;17730;53.552;9.940;2022-10-31T06:55:29;243.25;;;43.28;;
31073;SDS011;17730;53.552;9.940;2022-10-31T06:57:56;118.93;;;42.60;;
31073;SDS011;17730;53.552;9.940;2022-10-31T07:00:23;110.65;;;41.92;;
31073;SDS011;17730;53.552;9.940;2022-10-31T07:02:57;93.63;;;39.92;;
31073;SDS011;17730;53.552;9.940;2022-10-31T07:05:30;104.45;;;39.17;;
31073;SDS011;17730;53.552;9.940;2022-10-31T07:07:57;174.38;;;40.08;;
31073;SDS011;17730;53.552;9.940;2022-10-31T07:10:24;380.75;;;41.00;;
31073;SDS011;17730;53.552;9.940;2022-10-31T07:12:54;169.13;;;35.70;;
31073;SDS011;17730;53.552;9.940;2022-10-31T07:15:24;192.52;;;36.78;;
31073;SDS011;17730;53.552;9.940;2022-10-31T07:17:50;139.27;;;33.08;;
31073;SDS011;17730;53.552;9.940;2022-10-31T07:20:16;227.60;;;33.17;;
31073;SDS011;17730;53.552;9.940;2022-10-31T07:22:43;229.60;;;33.53;;
31073;SDS011;17730;53.552;9.940;2022-10-31T07:25:08;382.42;;;36.95;;
31073;SDS011;17730;53.552;9.940;2022-10-31T07:27:38;253.27;;;32.33;;
31073;SDS011;17730;53.552;9.940;2022-10-31T07:30:04;299.15;;;33.42;;
31073;SDS011;17730;53.552;9.940;2022-10-31T07:33:04;263.17;;;34.47;;
31073;SDS011;17730;53.552;9.940;2022-10-31T07:35:24;327.58;;;34.13;;
31073;SDS011;17730;53.552;9.940;2022-10-31T07:37:51;241.40;;;32.75;;
31073;SDS011;17730;53.552;9.940;2022-10-31T07:40:18;187.65;;;33.97;;
31073;SDS011;17730;53.552;9.940;2022-10-31T07:42:45;168.85;;;33.83;;
31073;SDS011;17730;53.552;9.940;2022-10-31T07:45:13;260.52;;;31.10;;
31073;SDS011;17730;53.552;9.940;2022-10-31T07:47:48;154.73;;;29.30;;
31073;SDS011;17730;53.552;9.940;2022-10-31T07:50:19;249.77;;;31.40;;
31073;SDS011;17730;53.552;9.940;2022-10-31T07:52:46;177.05;;;29.15;;
31073;SDS011;17730;53.552;9.940;2022-10-31T07:55:11;232.38;;;29.20;;
31073;SDS011;17730;53.552;9.940;2022-10-31T07:57:37;158.57;;;28.17;;
31073;SDS011;17730;53.552;9.940;2022-10-31T08:00:04;181.25;;;28.38;;
31073;SDS011;17730;53.552;9.940;2022-10-31T08:02:31;182.75;;;27.73;;
31073;SDS011;17730;53.552;9.940;2022-10-31T08:04:56;211.77;;;28.58;;
31073;SDS011;17730;53.552;9.940;2022-10-31T08:07:22;229.00;;;28.50;;
31073;SDS011;17730;53.552;9.940;2022-10-31T08:09:47;151.48;;;30.30;;
31073;SDS011;17730;53.552;9.940;2022-10-31T08:12:13;113.43;;;28.50;;
31073;SDS011;17730;53.552;9.940;2022-10-31T08:14:39;148.38;;;27.98;;
31073;SDS011;17730;53.552;9.940;2022-10-31T08:17:04;144.48;;;29.88;;
31073;SDS011;17730;53.552;9.940;2022-10-31T08:19:30;123.57;;;29.27;;
31073;SDS011;17730;53.552;9.940;2022-10-31T08:21:55;135.43;;;29.48;;
31073;SDS011;17730;53.552;9.940;2022-10-31T08:24:21;125.28;;;29.92;;
31073;SDS011;17730;53.552;9.940;2022-10-31T08:26:47;117.50;;;28.02;;
31073;SDS011;17730;53.552;9.940;2022-10-31T08:29:12;57.30;;;27.08;;
31073;SDS011;17730;53.552;9.940;2022-10-31T08:31:39;65.32;;;26.63;;
31073;SDS011;17730;53.552;9.940;2022-10-31T08:34:05;71.05;;;27.30;;
31073;SDS011;17730;53.552;9.940;2022-10-31T08:36:30;53.55;;;28.25;;
31073;SDS011;17730;53.552;9.940;2022-10-31T08:38:56;47.78;;;25.98;;
31073;SDS011;17730;53.552;9.940;2022-10-31T08:41:22;44.50;;;24.67;;
31073;SDS011;17730;53.552;9.940;2022-10-31T08:43:47;60.55;;;22.42;;
31073;SDS011;17730;53.552;9.940;2022-10-31T08:46:13;68.35;;;21.88;;
31073;SDS011;17730;53.552;9.940;2022-10-31T08:48:38;74.35;;;22.35;;
31073;SDS011;17730;53.552;9.940;2022-10-31T08:51:04;87.53;;;21.55;;
31073;SDS011;17730;53.552;9.940;2022-10-31T08:53:30;76.03;;;22.88;;
31073;SDS011;17730;53.552;9.940;2022-10-31T08:55:56;80.30;;;22.10;;
31073;SDS011;17730;53.552;9.940;2022-10-31T08:58:22;56.60;;;21.48;;
31073;SDS011;17730;53.552;9.940;2022-10-31T09:00:49;94.13;;;22.98;;
31073;SDS011;17730;53.552;9.940;2022-10-31T09:03:19;57.20;;;22.33;;
31073;SDS011;17730;53.552;9.940;2022-10-31T09:05:49;84.17;;;24.13;;
31073;SDS011;17730;53.552;9.940;2022-10-31T09:08:15;70.00;;;22.60;;
31073;SDS011;17730;53.552;9.940;2022-10-31T09:10:41;64.97;;;22.45;;
31073;SDS011;17730;53.552;9.940;2022-10-31T09:13:17;52.17;;;23.92;;
31073;SDS011;17730;53.552;9.940;2022-10-31T09:15:45;57.67;;;24.20;;
31073;SDS011;17730;53.552;9.940;2022-10-31T09:18:12;47.35;;;24.50;;
31073;SDS011;17730;53.552;9.940;2022-10-31T09:20:41;62.13;;;25.10;;
31073;SDS011;17730;53.552;9.940;2022-10-31T09:23:14;74.55;;;27.38;;
31073;SDS011;17730;53.552;9.940;2022-10-31T09:25:40;53.45;;;26.70;;
31073;SDS011;17730;53.552;9.940;2022-10-31T09:28:06;68.85;;;28.45;;
31073;SDS011;17730;53.552;9.940;2022-10-31T09:30:35;63.33;;;28.27;;
31073;SDS011;17730;53.552;9.940;2022-10-31T09:33:04;64.07;;;28.17;;
31073;SDS011;17730;53.552;9.940;2022-10-31T09:35:32;52.08;;;27.75;;
31073;SDS011;17730;53.552;9.940;2022-10-31T09:37:59;58.47;;;28.45;;
31073;SDS011;17730;53.552;9.940;2022-10-31T09:40:36;61.67;;;27.70;;
31073;SDS011;17730;53.552;9.940;2022-10-31T09:50:38;73.70;;;32.95;;
31073;SDS011;17730;53.552;9.940;2022-10-31T09:53:22;71.00;;;33.33;;
31073;SDS011;17730;53.552;9.940;2022-10-31T09:55:52;69.78;;;31.73;;
31073;SDS011;17730;53.552;9.940;2022-10-31T09:58:26;72.72;;;33.97;;
31073;SDS011;17730;53.552;9.940;2022-10-31T10:00:56;66.40;;;32.22;;
31073;SDS011;17730;53.552;9.940;2022-10-31T10:06:15;62.63;;;31.60;;
31073;SDS011;17730;53.552;9.940;2022-10-31T10:08:44;66.93;;;30.27;;
31073;SDS011;17730;53.552;9.940;2022-10-31T10:17:13;55.28;;;27.88;;
31073;SDS011;17730;53.552;9.940;2022-10-31T10:19:44;54.75;;;29.70;;
31073;SDS011;17730;53.552;9.940;2022-10-31T10:22:31;51.72;;;28.08;;
31073;SDS011;17730;53.552;9.940;2022-10-31T10:25:07;52.25;;;26.77;;
31073;SDS011;17730;53.552;9.940;2022-10-31T10:30:17;53.70;;;28.25;;
31073;SDS011;17730;53.552;9.940;2022-10-31T10:32:47;57.67;;;28.27;;
31073;SDS011;17730;53.552;9.940;2022-10-31T10:37:46;56.67;;;29.25;;
31073;SDS011;17730;53.552;9.940;2022-10-31T10:40:17;54.83;;;30.33;;
31073;SDS011;17730;53.552;9.940;2022-10-31T10:51:34;63.97;;;35.03;;
31073;SDS011;17730;53.552;9.940;2022-10-31T10:54:35;58.33;;;29.65;;
31073;SDS011;17730;53.552;9.940;2022-10-31T11:00:03;56.55;;;30.73;;
31073;SDS011;17730;53.552;9.940;2022-10-31T11:02:47;60.33;;;30.65;;
31073;SDS011;17730;53.552;9.940;2022-10-31T11:05:15;56.03;;;30.98;;
31073;SDS011;17730;53.552;9.940;2022-10-31T11:07:47;58.55;;;30.88;;
31073;SDS011;17730;53.552;9.940;2022-10-31T11:10:14;66.32;;;31.17;;
31073;SDS011;17730;53.552;9.940;2022-10-31T11:12:41;67.53;;;33.88;;
31073;SDS011;17730;53.552;9.940;2022-10-31T11:15:21;60.65;;;30.38;;
31073;SDS011;17730;53.552;9.940;2022-10-31T11:17:52;63.45;;;30.80;;
31073;SDS011;17730;53.552;9.940;2022-10-31T11:23:00;59.50;;;32.75;;
31073;SDS011;17730;53.552;9.940;2022-10-31T11:25:51;63.65;;;33.97;;
31073;SDS011;17730;53.552;9.940;2022-10-31T11:28:25;63.05;;;34.28;;
31073;SDS011;17730;53.552;9.940;2022-10-31T11:31:05;69.43;;;35.33;;
31073;SDS011;17730;53.552;9.940;2022-10-31T11:33:34;65.90;;;35.25;;
31073;SDS011;17730;53.552;9.940;2022-10-31T11:36:20;57.03;;;28.80;;
31073;SDS011;17730;53.552;9.940;2022-10-31T11:38:48;56.90;;;30.42;;
31073;SDS011;17730;53.552;9.940;2022-10-31T11:41:16;54.65;;;29.10;;
31073;SDS011;17730;53.552;9.940;2022-10-31T11:43:51;55.38;;;29.45;;
31073;SDS011;17730;53.552;9.940;2022-10-31T11:46:20;55.38;;;31.42;;
31073;SDS011;17730;53.552;9.940;2022-10-31T11:48:51;54.20;;;29.45;;
31073;SDS011;17730;53.552;9.940;2022-10-31T11:51:21;50.17;;;27.02;;
31073;SDS011;17730;53.552;9.940;2022-10-31T11:53:53;49.70;;;28.00;;
31073;SDS011;17730;53.552;9.940;2022-10-31T11:56:22;40.67;;;23.38;;
31073;SDS011;17730;53.552;9.940;2022-10-31T11:58:59;42.97;;;22.80;;
31073;SDS011;17730;53.552;9.940;2022-10-31T12:01:28;44.85;;;24.38;;
31073;SDS011;17730;53.552;9.940;2022-10-31T12:04:10;44.00;;;23.35;;
31073;SDS011;17730;53.552;9.940;2022-10-31T12:06:41;44.33;;;24.23;;
31073;SDS011;17730;53.552;9.940;2022-10-31T12:15:09;42.33;;;25.13;;
31073;SDS011;17730;53.552;9.940;2022-10-31T12:28:24;39.78;;;24.98;;
31073;SDS011;17730;53.552;9.940;2022-10-31T12:31:19;43.78;;;26.75;;
31073;SDS011;17730;53.552;9.940;2022-10-31T12:53:48;45.03;;;25.27;;
31073;SDS011;17730;53.552;9.940;2022-10-31T13:02:10;42.33;;;25.77;;
31073;SDS011;17730;53.552;9.940;2022-10-31T13:04:58;41.28;;;24.52;;
31073;SDS011;17730;53.552;9.940;2022-10-31T13:07:37;36.38;;;22.13;;
31073;SDS011;17730;53.552;9.940;2022-10-31T13:12:46;38.53;;;20.42;;
31073;SDS011;17730;53.552;9.940;2022-10-31T13:15:18;28.17;;;17.13;;
31073;SDS011;17730;53.552;9.940;2022-10-31T13:17:54;25.55;;;16.15;;
31073;SDS011;17730;53.552;9.940;2022-10-31T13:20:25;24.70;;;14.38;;
31073;SDS011;17730;53.552;9.940;2022-10-31T13:25:37;32.43;;;17.23;;
31073;SDS011;17730;53.552;9.940;2022-10-31T13:28:29;29.00;;;16.40;;
31073;SDS011;17730;53.552;9.940;2022-10-31T13:31:00;31.35;;;17.98;;
31073;SDS011;17730;53.552;9.940;2022-10-31T13:33:31;31.10;;;18.90;;
31073;SDS011;17730;53.552;9.940;2022-10-31T13:36:15;34.95;;;17.92;;
31073;SDS011;17730;53.552;9.940;2022-10-31T13:38:54;27.50;;;18.35;;
31073;SDS011;17730;53.552;9.940;2022-10-31T13:46:36;29.63;;;16.25;;
31073;SDS011;17730;53.552;9.940;2022-10-31T13:49:04;32.28;;;16.73;;
31073;SDS011;17730;53.552;9.940;2022-10-31T13:51:46;36.25;;;18.35;;
31073;SDS011;17730;53.552;9.940;2022-10-31T13:54:23;34.83;;;17.85;;
31073;SDS011;17730;53.552;9.940;2022-10-31T13:56:59;30.67;;;17.13;;
31073;SDS011;17730;53.552;9.940;2022-10-31T13:59:28;31.95;;;17.98;;
31073;SDS011;17730;53.552;9.940;2022-10-31T14:01:59;31.08;;;16.95;;
31073;SDS011;17730;53.552;9.940;2022-10-31T14:04:36;28.33;;;16.00;;
31073;SDS011;17730;53.552;9.940;2022-10-31T14:09:56;27.42;;;17.27;;
31073;SDS011;17730;53.552;9.940;2022-10-31T14:12:38;30.33;;;16.63;;
31073;SDS011;17730;53.552;9.940;2022-10-31T14:22:40;26.42;;;14.05;;
31073;SDS011;17730;53.552;9.940;2022-10-31T14:27:58;27.23;;;14.35;;
31073;SDS011;17730;53.552;9.940;2022-10-31T14:30:26;23.38;;;13.40;;
31073;SDS011;17730;53.552;9.940;2022-10-31T14:32:57;30.25;;;15.52;;
31073;SDS011;17730;53.552;9.940;2022-10-31T14:35:29;24.48;;;14.98;;
31073;SDS011;17730;53.552;9.940;2022-10-31T14:41:25;32.05;;;18.75;;
31073;SDS011;17730;53.552;9.940;2022-10-31T14:51:57;30.08;;;16.90;;
31073;SDS011;17730;53.552;9.940;2022-10-31T14:54:28;34.55;;;19.65;;
31073;SDS011;17730;53.552;9.940;2022-10-31T14:57:03;30.20;;;18.25;;
31073;SDS011;17730;53.552;9.940;2022-10-31T14:59:33;32.45;;;17.23;;
31073;SDS011;17730;53.552;9.940;2022-10-31T15:02:08;34.42;;;17.60;;
31073;SDS011;17730;53.552;9.940;2022-10-31T15:04:48;31.58;;;17.73;;
31073;SDS011;17730;53.552;9.940;2022-10-31T15:07:21;33.85;;;17.80;;
31073;SDS011;17730;53.552;9.940;2022-10-31T15:10:03;28.05;;;17.63;;
31073;SDS011;17730;53.552;9.940;2022-10-31T15:12:31;35.30;;;18.77;;
31073;SDS011;17730;53.552;9.940;2022-10-31T15:15:16;31.17;;;18.63;;
31073;SDS011;17730;53.552;9.940;2022-10-31T15:17:59;29.58;;;17.35;;
31073;SDS011;17730;53.552;9.940;2022-10-31T15:20:27;27.20;;;15.82;;
31073;SDS011;17730;53.552;9.940;2022-10-31T15:22:55;28.20;;;16.10;;
31073;SDS011;17730;53.552;9.940;2022-10-31T15:25:23;33.13;;;16.20;;
31073;SDS011;17730;53.552;9.940;2022-10-31T15:27:51;27.15;;;15.65;;
31073;SDS011;17730;53.552;9.940;2022-10-31T15:30:24;32.97;;;17.40;;
31073;SDS011;17730;53.552;9.940;2022-10-31T15:32:52;32.28;;;16.38;;
31073;SDS011;17730;53.552;9.940;2022-10-31T15:35:23;33.72;;;18.10;;
31073;SDS011;17730;53.552;9.940;2022-10-31T15:37:51;29.27;;;17.08;;
31073;SDS011;17730;53.552;9.940;2022-10-31T15:40:18;35.40;;;17.95;;
31073;SDS011;17730;53.552;9.940;2022-10-31T15:45:31;32.92;;;18.00;;
31073;SDS011;17730;53.552;9.940;2022-10-31T15:47:59;37.88;;;20.38;;
31073;SDS011;17730;53.552;9.940;2022-10-31T15:50:28;36.97;;;19.33;;
31073;SDS011;17730;53.552;9.940;2022-10-31T15:52:57;31.55;;;18.85;;
31073;SDS011;17730;53.552;9.940;2022-10-31T15:55:25;36.53;;;19.77;;
31073;SDS011;17730;53.552;9.940;2022-10-31T15:57:58;56.38;;;34.72;;
31073;SDS011;17730;53.552;9.940;2022-10-31T16:05:53;42.92;;;21.70;;
31073;SDS011;17730;53.552;9.940;2022-10-31T16:08:22;42.88;;;21.60;;
31073;SDS011;17730;53.552;9.940;2022-10-31T16:10:50;38.03;;;20.70;;
31073;SDS011;17730;53.552;9.940;2022-10-31T16:13:16;41.88;;;21.63;;
31073;SDS011;17730;53.552;9.940;2022-10-31T16:15:49;42.33;;;21.23;;
31073;SDS011;17730;53.552;9.940;2022-10-31T16:18:19;42.63;;;20.55;;
31073;SDS011;17730;53.552;9.940;2022-10-31T16:20:49;45.60;;;21.75;;
31073;SDS011;17730;53.552;9.940;2022-10-31T16:23:18;41.42;;;21.48;;
31073;SDS011;17730;53.552;9.940;2022-10-31T16:25:45;45.63;;;23.35;;
31073;SDS011;17730;53.552;9.940;2022-10-31T16:28:18;46.58;;;22.13;;
31073;SDS011;17730;53.552;9.940;2022-10-31T16:30:47;39.28;;;20.50;;
31073;SDS011;17730;53.552;9.940;2022-10-31T16:33:30;39.55;;;19.02;;
31073;SDS011;17730;53.552;9.940;2022-10-31T16:36:13;40.22;;;20.13;;
31073;SDS011;17730;53.552;9.940;2022-10-31T16:38:53;43.40;;;19.88;;
31073;SDS011;17730;53.552;9.940;2022-10-31T16:41:19;42.35;;;18.02;;
31073;SDS011;17730;53.552;9.940;2022-10-31T16:43:45;42.28;;;19.90;;
31073;SDS011;17730;53.552;9.940;2022-10-31T16:46:14;40.25;;;20.40;;
31073;SDS011;17730;53.552;9.940;2022-10-31T16:48:47;37.60;;;19.45;;
31073;SDS011;17730;53.552;9.940;2022-10-31T16:51:12;44.92;;;20.08;;
31073;SDS011;17730;53.552;9.940;2022-10-31T16:53:38;48.92;;;24.70;;
31073;SDS011;17730;53.552;9.940;2022-10-31T16:56:04;47.08;;;22.23;;
31073;SDS011;17730;53.552;9.940;2022-10-31T16:58:33;46.45;;;23.48;;
31073;SDS011;17730;53.552;9.940;2022-10-31T17:01:00;42.95;;;22.58;;
31073;SDS011;17730;53.552;9.940;2022-10-31T17:03:31;44.33;;;21.00;;
31073;SDS011;17730;53.552;9.940;2022-10-31T17:05:57;41.53;;;21.45;;